Time;durP1;ratioP1;P1;durP2;ratioP2;P2;SDS_P1;SDS_P2;PMS_P1;PMS_P2;Temp;Humidity;BMP_temperature;BMP_pressure;BME280_temperature;BME280_humidity;BME280_pressure;Samples;Min_cycle;Max_cycle;Signal;HPM_P1;HPM_P2
2023/10/24 00:00:31;;;;;;;7.20;6.03;;;;;;;0.98;100.00;101194.72;5064906;28;20037;-63
2023/10/24 00:02:57;;;;;;;13.20;6.97;;;;;;;1.13;100.00;101214.78;5056833;28;20037;-63
2023/10/24 00:05:22;;;;;;;9.33;7.73;;;;;;;1.18;100.00;101218.84;5052285;28;20037;-64
2023/10/24 00:07:49;;;;;;;10.63;6.40;;;;;;;1.16;100.00;101209.38;5051293;28;20434;-64
2023/10/24 00:10:16;;;;;;;10.90;7.23;;;;;;;1.09;100.00;101208.03;5052097;28;20514;-63
2023/10/24 00:12:41;;;;;;;10.90;7.63;;;;;;;1.17;100.00;101218.94;5051068;28;20270;-67
2023/10/24 00:15:07;;;;;;;9.17;6.77;;;;;;;1.22;100.00;101224.75;5051467;28;20295;-64
2023/10/24 00:17:33;;;;;;;8.43;7.10;;;;;;;1.15;100.00;101219.00;5051659;28;20051;-66
2023/10/24 00:19:58;;;;;;;9.90;6.43;;;;;;;1.07;100.00;101204.66;5051887;28;20025;-65
2023/10/24 00:22:24;;;;;;;10.53;7.37;;;;;;;1.26;100.00;101231.50;5050904;28;20033;-64
2023/10/24 00:24:49;;;;;;;9.00;6.93;;;;;;;1.10;100.00;101196.59;5052390;28;20063;-64
2023/10/24 00:27:15;;;;;;;10.10;6.80;;;;;;;1.34;100.00;101237.13;5051840;28;20044;-66
2023/10/24 00:29:40;;;;;;;9.50;6.40;;;;;;;1.40;100.00;101233.28;5054653;28;20068;-66
2023/10/24 00:32:06;;;;;;;9.60;6.70;;;;;;;1.31;100.00;101226.81;5056277;28;20040;-65
2023/10/24 00:34:32;;;;;;;12.47;7.13;;;;;;;1.23;100.00;101218.56;5050768;28;20061;-65
2023/10/24 00:36:57;;;;;;;12.03;6.93;;;;;;;1.31;100.00;101234.69;5050964;28;20044;-66
2023/10/24 00:39:23;;;;;;;11.90;7.33;;;;;;;1.26;100.00;101225.41;5050755;28;20094;-62
2023/10/24 00:41:48;;;;;;;8.57;7.23;;;;;;;1.24;100.00;101231.59;5052124;28;20033;-63
2023/10/24 00:44:14;;;;;;;9.30;6.60;;;;;;;1.27;100.00;101246.31;5054146;28;20064;-65
2023/10/24 00:46:41;;;;;;;11.10;6.80;;;;;;;0.33;100.00;101107.69;5054086;28;20040;-65
2023/10/24 00:49:08;;;;;;;9.77;6.97;;;;;;;1.10;100.00;101241.19;5053838;28;20291;-66
2023/10/24 00:51:33;;;;;;;9.03;7.10;;;;;;;1.27;100.00;101243.69;5036094;28;20272;-65
2023/10/24 00:54:01;;;;;;;12.67;7.23;;;;;;;1.32;100.00;101246.03;5035919;28;20303;-62
2023/10/24 00:56:28;;;;;;;9.23;6.57;;;;;;;1.27;100.00;101254.19;5053661;28;20083;-66
2023/10/24 00:58:54;;;;;;;12.57;7.07;;;;;;;1.20;100.00;101229.25;5052837;28;20312;-64
2023/10/24 01:01:20;;;;;;;9.97;7.53;;;;;;;1.37;100.00;101252.69;5054383;28;20413;-64
2023/10/24 01:03:48;;;;;;;10.20;7.07;;;;;;;1.24;100.00;101239.47;5052785;28;20379;-66
2023/10/24 01:06:15;;;;;;;9.97;7.17;;;;;;;1.05;100.00;101223.09;5054191;28;20029;-62
2023/10/24 01:08:40;;;;;;;8.53;6.93;;;;;;;1.19;100.00;101244.16;5053978;28;20287;-65
2023/10/24 01:11:06;;;;;;;9.43;6.63;;;;;;;1.22;100.00;101241.34;5053043;28;20307;-66
2023/10/24 01:13:32;;;;;;;9.07;6.20;;;;;;;1.30;100.00;101254.00;5060797;28;20048;-66
2023/10/24 01:15:58;;;;;;;10.63;7.00;;;;;;;1.35;100.00;101257.19;5055679;28;20033;-63
2023/10/24 01:18:24;;;;;;;11.43;6.90;;;;;;;1.45;100.00;101258.34;5054112;28;20320;-62
2023/10/24 01:20:50;;;;;;;10.93;7.37;;;;;;;1.42;100.00;101271.63;5054012;28;20041;-65
2023/10/24 01:23:17;;;;;;;8.23;5.47;;;;;;;1.39;100.00;101274.44;5053853;28;20271;-65
2023/10/24 01:25:42;;;;;;;7.87;5.67;;;;;;;1.30;100.00;101258.41;5053780;28;20270;-65
2023/10/24 01:28:09;;;;;;;11.47;6.63;;;;;;;1.30;100.00;101261.84;5053660;28;20268;-64
2023/10/24 01:30:38;;;;;;;8.10;5.93;;;;;;;1.34;100.00;101276.50;5053881;28;20072;-66
2023/10/24 01:33:05;;;;;;;10.33;6.17;;;;;;;1.24;100.00;101267.47;5053186;28;20272;-65
2023/10/24 01:35:31;;;;;;;11.23;6.87;;;;;;;1.22;100.00;101272.81;5053317;28;20705;-62
2023/10/24 01:37:57;;;;;;;8.80;6.47;;;;;;;1.17;100.00;101269.63;5053219;28;20263;-64
2023/10/24 01:40:22;;;;;;;9.83;7.00;;;;;;;1.27;100.00;101285.66;5053629;28;20044;-66
2023/10/24 01:42:48;;;;;;;10.47;6.67;;;;;;;0.94;100.00;101225.53;5053448;28;20033;-64
2023/10/24 01:45:15;;;;;;;9.73;6.00;;;;;;;1.31;100.00;101300.28;5053466;28;20044;-65
2023/10/24 01:47:41;;;;;;;10.17;7.23;;;;;;;1.27;100.00;101280.41;5053426;28;20754;-64
2023/10/24 01:50:07;;;;;;;9.83;6.27;;;;;;;1.35;100.00;101301.78;5053704;28;20757;-66
2023/10/24 01:52:33;;;;;;;10.00;6.27;;;;;;;1.33;100.00;101300.19;5058824;28;20273;-63
2023/10/24 01:54:58;;;;;;;11.97;7.10;;;;;;;1.30;100.00;101295.97;5058858;28;20064;-66
2023/10/24 01:57:24;;;;;;;10.83;6.33;;;;;;;1.19;100.00;101278.25;5058573;28;20036;-63
2023/10/24 01:59:49;;;;;;;11.07;6.80;;;;;;;1.33;100.00;101302.81;5058171;28;20565;-65
2023/10/24 02:02:15;;;;;;;8.23;5.90;;;;;;;0.98;100.00;101241.94;5053204;28;20572;-65
2023/10/24 02:04:41;;;;;;;10.50;6.63;;;;;;;1.42;100.00;101305.72;5053129;28;20094;-63
2023/10/24 02:07:07;;;;;;;8.63;6.47;;;;;;;1.48;100.00;101308.03;5052698;28;20055;-63
2023/10/24 02:09:33;;;;;;;12.07;7.27;;;;;;;1.51;100.00;101317.50;5052735;28;20730;-65
2023/10/24 02:12:00;;;;;;;10.20;7.03;;;;;;;1.36;100.00;101292.13;5053025;28;20279;-67
2023/10/24 02:14:27;;;;;;;8.43;5.87;;;;;;;1.49;100.00;101322.84;5052911;28;20036;-64
2023/10/24 02:16:53;;;;;;;8.30;6.03;;;;;;;1.32;100.00;101288.84;5052943;28;20264;-64
2023/10/24 02:19:18;;;;;;;9.23;6.10;;;;;;;1.57;100.00;101324.16;5052968;28;20263;-65
2023/10/24 02:22:04;;;;;;;8.43;5.83;;;;;;;1.65;100.00;101325.38;5051751;28;20465;-63
2023/10/24 02:24:29;;;;;;;8.90;6.80;;;;;;;1.52;100.00;101314.78;5053827;28;20274;-64
2023/10/24 02:26:55;;;;;;;8.60;6.30;;;;;;;1.52;100.00;101319.19;5052812;28;20043;-66
2023/10/24 02:29:20;;;;;;;7.77;5.77;;;;;;;1.59;100.00;101336.25;5051214;28;20039;-67
2023/10/24 02:31:46;;;;;;;8.83;6.67;;;;;;;1.61;100.00;101323.88;5052539;28;20549;-63
2023/10/24 02:34:12;;;;;;;7.97;5.90;;;;;;;1.56;100.00;101323.31;5054189;28;20092;-62
2023/10/24 02:36:38;;;;;;;8.60;5.57;;;;;;;1.59;100.00;101322.28;5059196;28;20095;-64
2023/10/24 02:39:04;;;;;;;8.07;5.77;;;;;;;1.70;100.00;101341.69;5058293;28;20333;-62
2023/10/24 02:41:30;;;;;;;8.73;5.77;;;;;;;1.68;100.00;101332.22;5055360;28;20283;-68
2023/10/24 02:43:55;;;;;;;7.80;5.93;;;;;;;1.63;100.00;101329.88;5052653;28;20430;-64
2023/10/24 02:46:21;;;;;;;6.70;5.27;;;;;;;1.54;100.00;101327.81;5052669;28;20040;-64
2023/10/24 02:48:46;;;;;;;7.83;5.83;;;;;;;1.59;100.00;101353.78;5052375;28;20087;-64
2023/10/24 02:51:12;;;;;;;8.53;5.40;;;;;;;1.59;100.00;101345.91;5052329;28;20033;-64
2023/10/24 02:53:37;;;;;;;6.97;5.43;;;;;;;1.53;100.00;101329.59;5052546;28;20048;-63
2023/10/24 02:56:03;;;;;;;8.00;5.33;;;;;;;1.65;100.00;101335.03;5052162;28;20033;-64
2023/10/24 02:58:29;;;;;;;7.53;5.93;;;;;;;1.63;100.00;101327.25;5051916;28;20094;-64
2023/10/24 03:00:55;;;;;;;8.13;5.37;;;;;;;1.74;100.00;101342.38;5051942;28;20048;-63
2023/10/24 03:03:21;;;;;;;8.60;6.37;;;;;;;1.63;100.00;101334.28;5052120;28;20048;-63
2023/10/24 03:05:46;;;;;;;7.67;5.10;;;;;;;1.77;100.00;101352.69;5050723;28;20488;-64
2023/10/24 03:08:12;;;;;;;6.27;4.97;;;;;;;1.77;100.00;101353.53;5052002;28;20488;-65
2023/10/24 03:10:39;;;;;;;6.70;5.00;;;;;;;1.77;100.00;101353.53;5052137;28;20069;-63
2023/10/24 03:13:04;;;;;;;6.63;3.97;;;;;;;1.86;100.00;101374.00;5052023;28;20366;-63
2023/10/24 03:15:30;;;;;;;6.73;5.50;;;;;;;1.69;100.00;101357.53;5052306;28;20322;-63
2023/10/24 03:17:55;;;;;;;9.13;5.57;;;;;;;1.78;100.00;101373.63;5056120;28;20043;-64
2023/10/24 03:20:21;;;;;;;6.20;5.27;;;;;;;1.66;100.00;101361.19;5051933;28;20039;-63
2023/10/24 03:22:48;;;;;;;6.13;4.50;;;;;;;1.46;100.00;101325.66;5051916;28;20110;-64
2023/10/24 03:25:13;;;;;;;10.80;5.13;;;;;;;1.81;100.00;101377.84;5052789;28;20127;-65
2023/10/24 03:27:39;;;;;;;6.63;5.10;;;;;;;1.79;100.00;101371.84;5050622;28;20687;-63
2023/10/24 03:30:05;;;;;;;8.13;5.37;;;;;;;1.71;100.00;101353.03;5052559;28;20177;-65
2023/10/24 03:32:31;;;;;;;6.27;4.70;;;;;;;1.92;100.00;101383.28;5052483;28;20369;-65
2023/10/24 03:34:57;;;;;;;8.53;4.60;;;;;;;1.83;100.00;101370.72;5051307;28;20307;-65
2023/10/24 03:37:23;;;;;;;5.37;3.97;;;;;;;1.97;100.00;101390.88;5052725;28;20547;-65
2023/10/24 03:39:49;;;;;;;5.77;4.30;;;;;;;1.72;100.00;101347.69;5052390;28;20047;-65
2023/10/24 03:42:15;;;;;;;6.67;3.90;;;;;;;2.02;100.00;101394.06;5052456;28;20060;-62
2023/10/24 03:44:41;;;;;;;4.50;3.70;;;;;;;1.90;100.00;101368.56;5036755;28;20786;-66
2023/10/24 03:47:07;;;;;;;7.70;4.63;;;;;;;2.03;100.00;101396.63;5051939;28;20283;-64
2023/10/24 03:49:33;;;;;;;4.23;3.20;;;;;;;1.71;100.00;101358.28;5053955;28;20443;-65
2023/10/24 03:51:59;;;;;;;5.20;3.37;;;;;;;1.83;100.00;101392.56;5051803;28;20139;-63
2023/10/24 03:54:26;;;;;;;4.23;3.00;;;;;;;1.76;100.00;101393.88;5051254;28;20291;-63
2023/10/24 03:56:52;;;;;;;4.00;3.00;;;;;;;1.81;100.00;101407.56;5052146;28;20056;-64
2023/10/24 03:59:17;;;;;;;3.93;3.20;;;;;;;1.68;100.00;101380.34;5051626;28;20766;-66
2023/10/24 04:01:43;;;;;;;5.17;3.70;;;;;;;1.78;100.00;101399.03;5051548;28;20480;-65
2023/10/24 04:04:08;;;;;;;4.80;3.80;;;;;;;1.82;100.00;101408.41;5051519;28;20036;-64
2023/10/24 04:06:34;;;;;;;3.20;2.73;;;;;;;1.61;100.00;101383.41;5051746;28;20044;-64
2023/10/24 04:09:04;;;;;;;3.50;2.50;;;;;;;1.88;100.00;101429.06;5052266;28;20033;-63
2023/10/24 04:11:34;;;;;;;5.37;2.70;;;;;;;1.92;100.00;101433.19;5038057;28;20094;-65
2023/10/24 04:14:00;;;;;;;3.57;2.60;;;;;;;1.92;100.00;101430.56;5052138;28;20304;-64
2023/10/24 04:16:26;;;;;;;3.83;2.73;;;;;;;1.97;99.27;101436.38;5052818;28;20291;-64
2023/10/24 04:18:51;;;;;;;6.00;2.80;;;;;;;1.88;99.22;101428.22;5055219;28;20255;-62
2023/10/24 04:21:17;;;;;;;5.17;2.47;;;;;;;1.88;99.96;101434.31;5054485;28;20056;-65
2023/10/24 04:23:43;;;;;;;5.90;4.37;;;;;;;1.88;100.00;101434.31;5055355;28;20040;-63
2023/10/24 04:26:09;;;;;;;7.30;4.07;;;;;;;2.01;99.56;101445.78;5055183;28;20033;-64
2023/10/24 04:28:35;;;;;;;8.73;5.30;;;;;;;2.15;99.23;101453.69;5054739;28;20350;-64
2023/10/24 04:31:02;;;;;;;7.97;4.00;;;;;;;2.10;98.87;101440.00;5053282;28;20707;-63
2023/10/24 04:33:29;;;;;;;6.97;4.47;;;;;;;2.12;98.79;101458.28;5054844;28;20056;-64
2023/10/24 04:35:55;;;;;;;6.13;3.47;;;;;;;1.78;98.07;101423.50;5054784;28;20371;-65
2023/10/24 04:38:20;;;;;;;5.67;3.23;;;;;;;1.53;98.57;101392.59;5056007;28;20713;-65
2023/10/24 04:40:49;;;;;;;3.40;2.43;;;;;;;1.94;98.45;101469.88;5056166;28;20048;-64
2023/10/24 04:43:15;;;;;;;;;;;;;;;1.95;98.50;101475.03;5056029;28;20067;-65
2023/10/24 04:45:40;;;;;;;4.90;3.20;;;;;;;1.77;98.45;101449.88;5055474;28;19923;-64
2023/10/24 04:48:06;;;;;;;5.00;2.83;;;;;;;1.88;98.13;101486.00;5055667;28;20029;-65
2023/10/24 04:50:35;;;;;;;5.73;3.17;;;;;;;1.65;99.09;101442.69;5055065;28;20113;-65
2023/10/24 04:53:01;;;;;;;3.87;3.13;;;;;;;1.71;99.79;101468.59;5056736;28;20580;-63
2023/10/24 04:55:28;;;;;;;4.17;2.83;;;;;;;1.65;100.00;101476.81;5054729;28;20287;-66
2023/10/24 04:57:54;;;;;;;3.40;2.50;;;;;;;1.62;100.00;101484.88;5036183;28;20067;-63
2023/10/24 05:00:20;;;;;;;3.50;2.77;;;;;;;1.76;100.00;101501.53;5054298;28;20322;-65
2023/10/24 05:02:45;;;;;;;6.60;3.17;;;;;;;1.69;100.00;101486.22;5054242;28;20033;-68
2023/10/24 05:05:11;;;;;;;4.50;3.00;;;;;;;1.70;100.00;101498.41;5053096;28;20037;-64
2023/10/24 05:07:37;;;;;;;7.43;3.70;;;;;;;1.60;100.00;101502.50;5054385;28;20122;-67
2023/10/24 05:10:04;;;;;;;3.87;3.23;;;;;;;1.56;100.00;101507.06;5052444;28;20123;-66
2023/10/24 05:12:30;;;;;;;5.40;3.73;;;;;;;1.34;100.00;101470.69;5053699;28;20279;-64
2023/10/24 05:14:56;;;;;;;4.70;3.60;;;;;;;1.38;100.00;101476.59;5054604;28;20306;-70
2023/10/24 05:17:21;;;;;;;3.53;3.00;;;;;;;1.55;100.00;101510.63;5045720;28;20111;-69
2023/10/24 05:19:47;;;;;;;5.03;3.50;;;;;;;1.51;100.00;101504.72;5035235;28;20304;-70
2023/10/24 05:22:16;;;;;;;4.90;2.80;;;;;;;1.58;100.00;101514.88;5040219;28;20037;-71
2023/10/24 05:24:41;;;;;;;3.97;2.92;;;;;;;1.62;100.00;101517.22;5035086;28;20059;-64
2023/10/24 05:27:07;;;;;;;8.50;3.53;;;;;;;1.68;100.00;101514.25;5033765;28;20484;-63
2023/10/24 05:29:33;;;;;;;4.10;3.20;;;;;;;1.59;100.00;101506.06;5033752;28;20536;-63
2023/10/24 05:31:59;;;;;;;4.77;3.30;;;;;;;1.48;100.00;101499.66;5033568;28;20033;-62
2023/10/24 05:34:27;;;;;;;3.40;2.97;;;;;;;1.55;100.00;101521.13;5033378;28;20296;-66
2023/10/24 05:36:53;;;;;;;5.13;3.27;;;;;;;1.41;100.00;101508.75;5033278;28;20543;-63
2023/10/24 05:39:19;;;;;;;5.40;3.93;;;;;;;1.37;100.00;101524.78;5033547;28;20366;-65
2023/10/24 05:41:49;;;;;;;7.70;3.77;;;;;;;1.34;100.00;101523.16;5033310;28;20033;-66
2023/10/24 05:44:14;;;;;;;4.53;3.90;;;;;;;1.31;100.00;101512.84;5032315;28;20271;-67
2023/10/24 05:46:40;;;;;;;5.20;4.43;;;;;;;1.22;100.00;101503.72;5043173;28;20626;-62
2023/10/24 05:49:06;;;;;;;4.43;3.37;;;;;;;1.44;100.00;101537.47;5053124;28;20060;-68
2023/10/24 05:51:32;;;;;;;6.57;4.00;;;;;;;1.47;100.00;101542.56;5053212;28;20041;-65
2023/10/24 05:53:58;;;;;;;6.93;3.73;;;;;;;1.38;100.00;101524.69;5050561;28;20298;-66
2023/10/24 05:56:24;;;;;;;3.80;3.17;;;;;;;1.42;100.00;101525.34;5034871;28;20321;-66
2023/10/24 05:58:51;;;;;;;4.73;3.40;;;;;;;1.37;100.00;101509.88;5053075;28;20279;-64
2023/10/24 06:01:16;;;;;;;6.60;3.60;;;;;;;1.63;100.00;101541.69;5053318;28;20303;-63
2023/10/24 06:03:42;;;;;;;4.87;4.37;;;;;;;1.61;100.00;101518.16;5051777;28;20828;-65
2023/10/24 06:06:08;;;;;;;4.13;3.73;;;;;;;1.80;100.00;101549.47;5050677;28;20039;-63
2023/10/24 06:08:34;;;;;;;6.77;3.97;;;;;;;1.90;100.00;101562.94;5053036;28;20037;-63
2023/10/24 06:11:02;;;;;;;4.60;3.80;;;;;;;1.66;100.00;101534.50;5052234;28;20025;-65
2023/10/24 06:13:28;;;;;;;6.27;4.13;;;;;;;1.76;100.00;101542.72;5051463;28;20773;-66
2023/10/24 06:15:54;;;;;;;7.73;4.50;;;;;;;1.76;100.00;101551.44;5052907;28;20337;-63
2023/10/24 06:18:20;;;;;;;5.97;4.73;;;;;;;1.83;100.00;101565.06;5053407;28;20285;-65
2023/10/24 06:20:48;;;;;;;4.80;4.00;;;;;;;1.93;100.00;101570.63;5052772;28;20267;-65
2023/10/24 06:23:14;;;;;;;5.67;3.97;;;;;;;1.99;100.00;101572.91;5051290;28;20036;-66
2023/10/24 06:25:41;;;;;;;5.73;4.27;;;;;;;1.85;100.00;101550.06;5052599;28;20337;-65
2023/10/24 06:28:08;;;;;;;5.80;3.80;;;;;;;1.98;100.00;101572.06;5052817;28;20044;-63
2023/10/24 06:30:35;;;;;;;8.13;4.23;;;;;;;2.16;100.00;101586.78;5052894;28;20275;-66
2023/10/24 06:33:02;;;;;;;5.73;3.63;;;;;;;2.22;100.00;101582.94;5053169;28;20340;-66
2023/10/24 06:35:30;;;;;;;8.33;4.03;;;;;;;2.26;100.00;101581.81;5053394;28;20303;-65
2023/10/24 06:37:56;;;;;;;6.43;3.97;;;;;;;2.33;100.00;101590.22;5052215;28;20407;-64
2023/10/24 06:40:22;;;;;;;4.10;3.07;;;;;;;2.31;100.00;101594.69;5057979;28;20267;-68
2023/10/24 06:42:47;;;;;;;11.23;4.90;;;;;;;2.28;100.00;101605.38;5066752;28;20274;-68
2023/10/24 06:45:15;;;;;;;5.83;3.37;;;;;;;2.17;100.00;101588.47;5074315;28;20037;-67
2023/10/24 06:47:40;;;;;;;7.53;3.80;;;;;;;2.28;100.00;101597.50;5071773;28;20076;-65
2023/10/24 06:50:07;;;;;;;4.40;3.00;;;;;;;2.40;100.00;101602.06;5070412;28;20619;-68
2023/10/24 06:52:32;;;;;;;4.30;3.10;;;;;;;2.51;100.00;101611.94;5054731;28;20068;-65
2023/10/24 06:54:58;;;;;;;6.43;3.83;;;;;;;2.58;100.00;101606.22;5051572;28;20390;-68
2023/10/24 06:57:24;;;;;;;6.00;3.50;;;;;;;2.62;99.93;101620.06;5053003;28;20450;-68
2023/10/24 06:59:51;;;;;;;5.70;3.80;;;;;;;2.45;100.00;101587.72;5052174;28;20569;-68
2023/10/24 07:02:17;;;;;;;5.30;4.00;;;;;;;2.59;99.16;101621.06;5050850;28;20271;-73
2023/10/24 07:04:43;;;;;;;4.90;3.33;;;;;;;2.36;99.43;101605.81;5050525;28;20291;-70
2023/10/24 07:07:08;;;;;;;4.73;3.00;;;;;;;2.39;99.66;101626.66;5052310;28;20381;-71
2023/10/24 07:09:37;;;;;;;4.57;3.20;;;;;;;2.26;99.03;101618.63;5051822;28;20033;-72
2023/10/24 07:12:03;;;;;;;8.90;4.20;;;;;;;2.22;99.27;101606.59;5050609;28;20040;-69
2023/10/24 07:14:29;;;;;;;4.80;3.40;;;;;;;2.29;99.53;101604.44;5051305;28;20291;-70
2023/10/24 07:17:19;;;;;;;5.70;3.50;;;;;;;2.47;99.36;101621.78;5051823;28;20048;-70
2023/10/24 07:19:45;;;;;;;3.57;2.97;;;;;;;2.51;98.17;101615.41;5051961;28;20272;-68
2023/10/24 07:22:11;;;;;;;4.97;3.03;;;;;;;2.52;96.49;101609.22;5051692;28;20038;-69
2023/10/24 07:24:36;;;;;;;6.27;3.20;;;;;;;2.72;97.09;101637.84;5054634;28;20396;-68
2023/10/24 07:27:03;;;;;;;7.37;3.63;;;;;;;2.78;94.26;101641.88;5055275;28;20036;-67
2023/10/24 07:29:29;;;;;;;4.90;3.23;;;;;;;2.63;93.98;101627.88;5051585;28;20033;-67
2023/10/24 07:31:56;;;;;;;5.93;3.43;;;;;;;2.77;94.70;101645.44;5052071;28;20824;-66
2023/10/24 07:34:21;;;;;;;6.23;3.07;;;;;;;2.78;93.84;101639.25;5051230;28;20310;-67
2023/10/24 07:36:47;;;;;;;11.27;3.37;;;;;;;2.72;94.50;101623.84;5051496;28;20366;-65
2023/10/24 07:39:14;;;;;;;7.73;3.67;;;;;;;2.87;94.91;101637.84;5050232;28;20051;-68
2023/10/24 07:41:40;;;;;;;5.57;3.60;;;;;;;2.98;93.71;101656.47;5051566;28;20096;-67
2023/10/24 07:44:06;;;;;;;9.30;4.57;;;;;;;2.65;94.20;101604.09;5051781;28;20271;-66
2023/10/24 07:46:31;;;;;;;7.73;3.60;;;;;;;2.91;92.04;101649.91;5051368;28;20774;-67
2023/10/24 07:48:58;;;;;;;9.13;3.60;;;;;;;3.02;92.58;101665.88;5051303;28;20033;-69
2023/10/24 07:51:27;;;;;;;7.43;4.07;;;;;;;2.93;92.70;101654.13;5054373;28;20055;-67
2023/10/24 07:53:54;;;;;;;7.03;3.97;;;;;;;2.97;93.03;101658.28;5057864;28;20342;-68
2023/10/24 07:56:19;;;;;;;8.33;3.50;;;;;;;2.94;92.77;101641.81;5058940;28;20271;-71
2023/10/24 07:58:45;;;;;;;7.87;4.10;;;;;;;3.14;92.41;101672.19;5058453;28;20366;-69
2023/10/24 08:01:11;;;;;;;7.77;4.13;;;;;;;3.17;91.56;101672.84;5057223;28;20041;-72
2023/10/24 08:03:36;;;;;;;8.33;4.03;;;;;;;3.19;91.29;101668.38;5055504;28;20036;-70
2023/10/24 08:06:03;;;;;;;6.93;3.90;;;;;;;3.21;91.12;101671.75;5037547;28;20124;-70
2023/10/24 08:08:29;;;;;;;9.43;4.00;;;;;;;3.17;91.11;101657.03;5055680;28;20055;-71
2023/10/24 08:10:55;;;;;;;6.90;3.03;;;;;;;3.12;89.41;101630.16;5055632;28;20766;-68
2023/10/24 08:13:21;;;;;;;5.53;2.70;;;;;;;3.22;86.32;101644.47;5036900;28;20037;-69
2023/10/24 08:15:50;;;;;;;4.63;2.50;;;;;;;3.21;83.43;101671.75;5054086;28;20480;-76
2023/10/24 08:18:15;;;;;;;4.07;3.00;;;;;;;2.92;86.70;101639.28;5055061;28;20280;-70
2023/10/24 08:20:41;;;;;;;6.10;3.23;;;;;;;2.92;85.50;101651.59;5054536;28;20472;-71
2023/10/24 08:23:06;;;;;;;4.47;2.50;;;;;;;2.81;84.46;101646.94;5054669;28;20041;-70
2023/10/24 08:25:32;;;;;;;6.07;3.63;;;;;;;3.06;85.93;101683.19;5054599;28;20064;-71
2023/10/24 08:27:58;;;;;;;5.37;3.30;;;;;;;2.92;84.36;101659.50;5053052;28;20041;-70
2023/10/24 08:30:23;;;;;;;3.53;2.60;;;;;;;3.07;83.21;101684.88;5054132;28;20044;-70
2023/10/24 08:32:49;;;;;;;5.27;3.57;;;;;;;3.11;80.97;101666.16;5053920;28;20032;-71
2023/10/24 08:35:15;;;;;;;4.23;2.90;;;;;;;3.27;79.80;101674.00;5054101;28;20433;-70
2023/10/24 08:37:41;;;;;;;4.20;2.77;;;;;;;3.29;77.92;101642.31;5053983;28;20045;-70
2023/10/24 08:40:08;;;;;;;4.50;2.63;;;;;;;3.70;77.44;101689.78;5052953;28;20282;-70
2023/10/24 08:42:36;;;;;;;3.93;2.50;;;;;;;3.72;77.59;101645.72;5053104;28;20400;-69
2023/10/24 08:45:04;;;;;;;6.63;3.75;;;;;;;4.17;74.65;101685.94;5054275;28;20744;-70
2023/10/24 08:47:31;;;;;;;;;;;;;;;4.15;75.05;101682.53;5054453;28;20044;-71
2023/10/24 08:50:00;;;;;;;6.17;2.50;;;;;;;3.93;72.73;101644.38;5053124;28;19928;-69
2023/10/24 08:52:27;;;;;;;4.00;3.30;;;;;;;4.18;72.73;101677.91;5053028;28;20670;-68
2023/10/24 08:54:53;;;;;;;3.73;2.47;;;;;;;4.02;73.59;101656.09;5056161;28;20299;-70
2023/10/24 08:57:27;;;;;;;7.83;2.87;;;;;;;4.19;73.67;101681.41;5054846;28;20776;-70
2023/10/24 08:59:55;;;;;;;5.23;3.40;;;;;;;4.34;72.36;101685.69;5054173;28;20044;-68
2023/10/24 09:02:21;;;;;;;4.68;3.05;;;;;;;4.43;72.73;101687.72;5053767;28;20350;-71
2023/10/24 09:04:48;;;;;;;4.73;2.47;;;;;;;4.37;75.62;101664.38;5054090;28;20037;-71
2023/10/24 09:07:13;;;;;;;6.77;3.27;;;;;;;4.40;77.30;101690.56;5053893;28;20276;-70
2023/10/24 09:09:39;;;;;;;7.10;2.90;;;;;;;4.20;76.44;101654.09;5054584;28;20769;-69
2023/10/24 09:12:05;;;;;;;5.37;2.80;;;;;;;4.23;76.01;101667.91;5056435;28;20383;-68
2023/10/24 09:14:31;;;;;;;5.90;3.20;;;;;;;4.27;77.02;101684.38;5057413;28;20119;-69
2023/10/24 09:17:01;;;;;;;4.33;3.23;;;;;;;4.24;77.14;101689.84;5056588;28;20358;-73
2023/10/24 09:19:27;;;;;;;9.07;2.63;;;;;;;4.21;77.34;101679.50;5055225;28;20037;-70
2023/10/24 09:21:55;;;;;;;4.37;2.50;;;;;;;4.13;75.24;101673.88;5056183;28;20267;-70
2023/10/24 09:24:21;;;;;;;3.30;2.80;;;;;;;4.27;74.92;101681.75;5055168;28;20278;-70
2023/10/24 09:26:51;;;;;;;4.23;2.03;;;;;;;4.28;73.84;101667.59;5055670;28;20033;-70
2023/10/24 09:29:18;;;;;;;7.37;2.53;;;;;;;4.42;74.60;101703.66;5056939;28;20029;-70
2023/10/24 09:31:48;;;;;;;3.17;2.03;;;;;;;4.26;76.40;101696.72;5056482;28;20302;-71
2023/10/24 09:34:17;;;;;;;6.17;2.93;;;;;;;3.95;76.92;101674.09;5056744;28;20303;-70
2023/10/24 09:36:44;;;;;;;4.17;2.20;;;;;;;3.96;78.36;101693.41;5054439;28;20808;-70
2023/10/24 09:39:11;;;;;;;3.97;2.90;;;;;;;4.01;78.84;101692.16;5053689;28;20321;-69
2023/10/24 09:41:41;;;;;;;6.67;3.17;;;;;;;4.10;75.89;101697.81;5054012;28;20267;-70
2023/10/24 09:44:07;;;;;;;3.63;1.80;;;;;;;3.99;73.85;101675.59;5053718;28;20287;-70
2023/10/24 09:46:34;;;;;;;6.87;2.30;;;;;;;4.15;74.55;101706.28;5052372;28;20683;-69
2023/10/24 09:49:01;;;;;;;4.00;1.97;;;;;;;4.18;73.96;101679.72;5052361;28;20262;-68
2023/10/24 09:51:27;;;;;;;4.30;2.17;;;;;;;4.11;71.82;101662.59;5053139;28;20279;-70
2023/10/24 09:53:53;;;;;;;6.77;3.23;;;;;;;4.27;71.13;101671.19;5052770;28;20775;-70
2023/10/24 09:56:20;;;;;;;2.93;2.30;;;;;;;4.41;71.02;101700.16;5054287;28;20271;-70
2023/10/24 09:58:46;;;;;;;6.23;2.17;;;;;;;4.32;69.20;101679.63;5053818;28;20512;-70
2023/10/24 10:01:12;;;;;;;3.47;2.03;;;;;;;4.15;68.36;101664.94;5053634;28;20283;-68
2023/10/24 10:03:38;;;;;;;7.90;1.80;;;;;;;4.13;69.10;101702.88;5053174;28;20274;-71
2023/10/24 10:06:06;;;;;;;2.40;2.20;;;;;;;3.82;71.65;101689.03;5053595;28;20041;-70
2023/10/24 10:08:40;;;;;;;6.57;2.25;;;;;;;3.79;68.63;101694.50;5052419;28;20040;-73
2023/10/24 10:11:07;;;;;;;2.67;1.70;;;;;;;3.87;65.84;101686.94;5053041;28;20033;-70
2023/10/24 10:13:50;;;;;;;2.23;1.97;;;;;;;3.78;68.69;101640.09;5052137;28;20266;-70
2023/10/24 10:16:28;;;;;;;7.73;2.50;;;;;;;4.19;70.82;101713.03;5053082;28;20266;-74
2023/10/24 10:19:13;;;;;;;;;;;;;;;4.33;71.94;101715.63;5053167;28;20333;-70
2023/10/24 10:22:13;;;;;;;6.33;2.47;;;;;;;4.54;70.94;101708.94;5052923;28;20303;-70
2023/10/24 10:25:08;;;;;;;4.03;2.30;;;;;;;4.82;65.33;101707.13;5052641;28;20270;-70
2023/10/24 10:27:41;;;;;;;4.27;1.87;;;;;;;4.94;57.78;101714.25;5052632;28;20267;-69
2023/10/24 10:30:13;;;;;;;3.63;1.43;;;;;;;5.08;57.03;101698.31;5051377;28;20267;-70
2023/10/24 10:32:49;;;;;;;2.80;1.47;;;;;;;5.29;55.93;101707.41;5051151;28;20263;-67
2023/10/24 10:35:18;;;;;;;1.90;1.20;;;;;;;5.08;53.86;101653.41;5052168;28;20303;-69
2023/10/24 10:38:01;;;;;;;3.97;2.00;;;;;;;5.48;61.37;101695.53;5051676;28;20318;-72
2023/10/24 10:40:30;;;;;;;4.30;2.50;;;;;;;5.47;63.83;101709.72;5049147;28;20267;-68
2023/10/24 10:42:55;;;;;;;4.57;1.63;;;;;;;5.36;55.74;101680.56;5041886;28;20044;-70
2023/10/24 10:45:29;;;;;;;3.23;1.97;;;;;;;5.52;54.66;101678.56;5031223;28;20037;-72
2023/10/24 10:47:57;;;;;;;5.13;1.70;;;;;;;5.92;53.90;101696.91;5032439;28;20042;-69
2023/10/24 10:50:27;;;;;;;2.75;1.88;;;;;;;6.26;52.92;101706.72;5032101;28;20100;-71
2023/10/24 10:53:14;;;;;;;4.57;2.47;;;;;;;6.30;51.46;101710.84;5031265;28;20091;-69
2023/10/24 10:55:55;;;;;;;2.90;1.47;;;;;;;6.09;49.83;101707.13;5028021;28;20041;-69
2023/10/24 10:58:28;;;;;;;3.13;2.00;;;;;;;5.93;50.30;101701.22;5031992;28;20049;-70
2023/10/24 11:01:33;;;;;;;2.13;1.10;;;;;;;5.86;48.60;101714.00;5033386;28;20042;-71
2023/10/24 11:03:59;;;;;;;1.97;1.63;;;;;;;5.68;49.84;101689.72;5035280;28;20480;-68
2023/10/24 11:06:26;;;;;;;3.80;2.20;;;;;;;5.65;49.84;101695.22;5035098;28;20040;-70
2023/10/24 11:09:13;;;;;;;4.10;1.70;;;;;;;5.53;50.66;101704.03;5032844;28;20065;-69
2023/10/24 11:11:39;;;;;;;4.17;1.67;;;;;;;5.52;51.49;101718.19;5032494;28;20033;-69
2023/10/24 11:14:20;;;;;;;3.40;1.70;;;;;;;5.50;50.58;101712.16;5030523;28;20411;-74
2023/10/24 11:16:50;;;;;;;2.60;1.50;;;;;;;5.52;50.81;101712.91;5032631;28;20408;-68
2023/10/24 11:19:20;;;;;;;3.40;1.43;;;;;;;5.70;50.74;101713.41;5031883;28;20040;-71
2023/10/24 11:21:49;;;;;;;3.23;1.50;;;;;;;5.85;49.69;101699.94;5038418;28;20052;-71
2023/10/24 11:24:20;;;;;;;1.57;1.47;;;;;;;5.93;49.25;101706.50;5050433;28;20087;-69
2023/10/24 11:26:47;;;;;;;7.03;2.03;;;;;;;6.27;49.24;101707.56;5054890;28;20045;-69
2023/10/24 11:29:13;;;;;;;4.53;1.77;;;;;;;6.58;49.14;101698.22;5061469;28;20091;-68